Time;durP1;ratioP1;P1;durP2;ratioP2;P2;SDS_P1;SDS_P2;PMS_P1;PMS_P2;Temp;Humidity;BMP_temperature;BMP_pressure;BME280_temperature;BME280_humidity;BME280_pressure;Samples;Min_cycle;Max_cycle;Signal;HPM_P1;HPM_P2
2023/05/02 03:58:01;;;;;;;4.35;4.05;;;6.60;99.90;;;;;;6207766;22;20211;-66
2023/05/02 04:00:28;;;;;;;4.70;4.40;;;6.60;99.90;;;;;;6216149;23;20529;-65
2023/05/02 04:02:54;;;;;;;4.90;4.50;;;6.60;99.90;;;;;;6216640;23;20180;-66
2023/05/02 04:05:21;;;;;;;4.47;4.28;;;6.60;99.90;;;;;;6216176;23;20664;-66
2023/05/02 04:07:48;;;;;;;4.72;4.43;;;6.60;99.90;;;;;;6216404;23;20197;-66
2023/05/02 04:10:16;;;;;;;4.70;4.40;;;6.50;99.90;;;;;;6217903;23;20512;-65
2023/05/02 04:12:43;;;;;;;5.25;4.85;;;6.50;99.90;;;;;;6216539;23;20192;-66
2023/05/02 04:15:11;;;;;;;5.18;4.78;;;6.40;99.90;;;;;;6216049;23;20177;-66
2023/05/02 04:17:39;;;;;;;4.57;4.00;;;6.40;99.90;;;;;;6215909;23;20661;-66
2023/05/02 04:20:06;;;;;;;4.47;4.18;;;6.40;99.90;;;;;;6216400;23;20184;-66
2023/05/02 04:22:33;;;;;;;4.35;3.95;;;6.40;99.90;;;;;;6216059;23;20656;-66
2023/05/02 04:25:00;;;;;;;4.50;4.20;;;6.40;99.90;;;;;;6216367;23;20172;-66
2023/05/02 04:27:27;;;;;;;4.40;4.10;;;6.40;99.90;;;;;;6216396;23;20514;-67
2023/05/02 04:29:54;;;;;;;4.68;4.38;;;6.50;99.90;;;;;;6216805;23;20219;-67
2023/05/02 04:32:22;;;;;;;4.85;4.45;;;6.50;99.90;;;;;;6216404;23;20200;-66
2023/05/02 04:34:49;;;;;;;5.00;4.60;;;6.50;99.90;;;;;;6216462;23;20177;-65
2023/05/02 04:37:15;;;;;;;4.75;4.45;;;6.60;99.90;;;;;;6216440;23;20208;-65
2023/05/02 04:39:42;;;;;;;4.55;4.25;;;6.60;99.90;;;;;;6217173;23;20176;-66
2023/05/02 04:42:09;;;;;;;4.43;4.13;;;6.60;99.90;;;;;;6217653;23;20176;-67
2023/05/02 04:44:35;;;;;;;5.05;4.65;;;6.60;99.90;;;;;;6232763;23;20176;-66
2023/05/02 04:47:03;;;;;;;5.03;4.63;;;6.60;99.90;;;;;;6231686;23;20192;-67
2023/05/02 04:49:32;;;;;;;4.72;4.32;;;6.70;99.90;;;;;;6229348;23;20177;-67
2023/05/02 04:51:59;;;;;;;5.13;4.72;;;6.70;99.90;;;;;;6218975;23;20196;-67
2023/05/02 04:54:26;;;;;;;6.50;5.90;;;6.80;99.90;;;;;;6216169;23;20494;-65
2023/05/02 04:56:53;;;;;;;5.43;4.97;;;6.80;99.90;;;;;;6215768;23;20646;-67
2023/05/02 04:59:20;;;;;;;4.75;4.45;;;6.80;99.90;;;;;;6215949;23;20184;-65
2023/05/02 05:01:46;;;;;;;5.30;4.90;;;6.90;99.90;;;;;;6216299;23;20272;-68
2023/05/02 05:04:13;;;;;;;5.97;5.55;;;6.90;99.90;;;;;;6216340;23;20179;-67
2023/05/02 05:06:41;;;;;;;4.60;4.30;;;7.00;99.90;;;;;;6216186;23;20197;-66
2023/05/02 05:09:08;;;;;;;5.13;4.72;;;7.10;99.90;;;;;;6216199;23;20177;-66
2023/05/02 05:11:35;;;;;;;4.80;4.40;;;7.10;99.90;;;;;;6216579;23;20169;-66
2023/05/02 05:14:03;;;;;;;4.82;4.53;;;7.20;99.90;;;;;;6216421;23;20173;-66
2023/05/02 05:16:30;;;;;;;5.50;5.03;;;7.30;99.90;;;;;;6216235;23;20634;-66
2023/05/02 05:18:57;;;;;;;5.43;5.03;;;7.50;99.90;;;;;;6216525;23;20177;-66
2023/05/02 05:21:24;;;;;;;6.65;6.05;;;7.60;99.90;;;;;;6216452;23;20187;-66
2023/05/02 05:23:52;;;;;;;6.13;5.68;;;7.70;99.90;;;;;;6216154;23;20173;-66
2023/05/02 13:05:32;;;;;;;1.75;1.65;;;17.40;51.70;;;;;;6195945;22;20199;-67
2023/05/02 13:07:59;;;;;;;1.42;1.38;;;17.40;51.30;;;;;;6250432;23;20202;-67
2023/05/02 13:10:26;;;;;;;1.00;1.00;;;17.50;52.50;;;;;;6247468;23;20182;-69
2023/05/02 13:12:54;;;;;;;1.80;1.70;;;17.70;53.00;;;;;;6252146;23;20175;-67
2023/05/02 13:15:21;;;;;;;1.83;1.73;;;17.60;52.50;;;;;;6251801;22;20521;-67
2023/05/02 13:17:51;;;;;;;1.65;1.55;;;17.80;52.20;;;;;;6252410;23;20511;-67
2023/05/02 13:20:18;;;;;;;2.50;1.73;;;18.10;51.50;;;;;;6252893;23;20175;-67
2023/05/02 13:22:46;;;;;;;2.20;2.10;;;18.20;49.90;;;;;;6250799;23;20172;-67
2023/05/02 13:25:14;;;;;;;2.50;2.33;;;17.90;49.10;;;;;;6252213;22;20195;-67
2023/05/02 13:27:41;;;;;;;1.55;1.48;;;18.00;52.00;;;;;;6252096;23;20172;-67
2023/05/02 13:30:10;;;;;;;2.95;2.85;;;18.30;53.20;;;;;;6253582;22;20233;-67
2023/05/02 13:32:38;;;;;;;3.50;3.28;;;18.10;52.80;;;;;;6252644;22;20701;-67
2023/05/02 13:35:07;;;;;;;2.30;2.20;;;17.60;54.70;;;;;;6251275;22;20191;-67
2023/05/02 13:37:34;;;;;;;2.60;2.42;;;17.50;55.10;;;;;;6252203;22;20187;-67
2023/05/02 13:40:03;;;;;;;3.65;3.45;;;17.30;54.40;;;;;;6252852;22;20176;-67
2023/05/02 13:42:30;;;;;;;3.88;3.63;;;16.80;55.10;;;;;;6252238;23;20171;-67
2023/05/02 13:44:57;;;;;;;4.43;4.18;;;16.60;57.20;;;;;;6246440;22;20196;-67
2023/05/02 13:47:25;;;;;;;3.65;3.45;;;16.50;59.30;;;;;;6246558;23;20178;-67
2023/05/02 13:49:52;;;;;;;3.78;3.58;;;16.30;63.10;;;;;;6247029;23;20171;-67
2023/05/02 13:52:19;;;;;;;4.30;3.90;;;16.30;63.80;;;;;;6249088;23;20222;-67
2023/05/02 13:54:46;;;;;;;4.38;4.07;;;16.20;65.90;;;;;;6251106;22;20195;-67
2023/05/02 13:57:15;;;;;;;3.47;3.28;;;16.20;67.70;;;;;;6251629;23;20176;-67
2023/05/02 13:59:41;;;;;;;3.85;3.47;;;16.30;65.60;;;;;;6247545;22;20175;-66
2023/05/02 14:02:08;;;;;;;3.70;3.40;;;16.50;63.80;;;;;;6246012;23;20175;-67
2023/05/02 14:04:35;;;;;;;3.78;3.47;;;16.70;64.80;;;;;;6246488;22;20176;-68
2023/05/02 14:07:01;;;;;;;3.55;3.35;;;16.90;61.40;;;;;;6246343;23;20172;-67
2023/05/02 14:09:28;;;;;;;3.42;3.22;;;17.30;59.70;;;;;;6246277;23;20167;-67
2023/05/02 14:11:55;;;;;;;3.92;3.65;;;17.40;58.40;;;;;;6247196;23;20495;-67
2023/05/02 14:14:23;;;;;;;4.85;4.18;;;17.40;60.50;;;;;;6246284;22;20176;-68
2023/05/02 14:16:50;;;;;;;4.90;4.47;;;17.30;60.50;;;;;;6246374;23;20172;-67
2023/05/02 14:19:19;;;;;;;4.47;4.18;;;17.20;59.00;;;;;;6246431;23;20502;-68
2023/05/02 14:21:46;;;;;;;4.05;3.75;;;17.10;59.40;;;;;;6244668;23;20640;-68
2023/05/02 14:24:14;;;;;;;4.72;4.00;;;17.10;59.80;;;;;;6246488;23;20172;-67
2023/05/02 14:26:42;;;;;;;5.15;4.00;;;16.90;57.40;;;;;;6246806;22;20270;-67
2023/05/02 14:29:09;;;;;;;3.40;3.20;;;16.90;58.80;;;;;;6247673;23;20171;-67
2023/05/02 14:31:37;;;;;;;3.25;3.00;;;16.80;57.70;;;;;;6248180;22;20171;-67
2023/05/02 14:34:04;;;;;;;3.20;2.92;;;16.90;57.10;;;;;;6248081;23;20182;-68
2023/05/02 14:36:31;;;;;;;3.38;3.08;;;16.90;55.50;;;;;;6247844;22;20203;-67
2023/05/02 14:38:58;;;;;;;3.03;2.78;;;17.10;54.40;;;;;;6248423;22;20187;-67
2023/05/02 14:41:26;;;;;;;4.35;2.20;;;17.20;54.40;;;;;;6246818;23;20172;-66
2023/05/02 14:43:53;;;;;;;3.08;2.88;;;17.30;52.40;;;;;;6248138;22;20178;-68
2023/05/02 14:46:20;;;;;;;2.42;2.05;;;17.30;49.50;;;;;;6247664;22;20731;-67
2023/05/02 14:48:55;;;;;;;2.67;2.45;;;17.20;50.10;;;;;;6248147;23;20168;-68
2023/05/02 14:51:21;;;;;;;6.45;4.40;;;17.20;50.90;;;;;;6245738;23;20255;-67
2023/05/02 14:53:48;;;;;;;4.60;4.20;;;17.00;54.30;;;;;;6247605;23;20235;-67
2023/05/02 14:56:17;;;;;;;7.40;4.70;;;16.80;58.10;;;;;;6247742;22;20738;-67
2023/05/02 14:58:45;;;;;;;9.63;6.63;;;16.70;59.40;;;;;;6247886;23;20199;-68
2023/05/02 15:01:17;;;;;;;6.78;5.82;;;16.50;64.10;;;;;;6248091;23;20183;-67
2023/05/02 15:03:46;;;;;;;6.38;5.78;;;16.40;69.10;;;;;;6247150;23;20211;-66
2023/05/02 15:06:15;;;;;;;6.25;5.30;;;16.40;71.40;;;;;;6247502;22;20275;-67
2023/05/02 15:08:42;;;;;;;5.43;5.03;;;16.40;72.70;;;;;;6247527;22;20252;-71
2023/05/02 15:11:10;;;;;;;5.32;4.93;;;16.40;80.50;;;;;;6247318;23;20215;-67
2023/05/02 15:13:37;;;;;;;6.50;5.90;;;16.50;78.80;;;;;;6247446;23;20172;-67
2023/05/02 15:16:05;;;;;;;7.65;6.95;;;16.40;76.40;;;;;;6247149;22;20245;-66
2023/05/02 15:18:32;;;;;;;7.70;7.03;;;16.10;75.30;;;;;;6248429;23;20219;-67
2023/05/02 15:20:59;;;;;;;6.15;5.65;;;15.90;76.60;;;;;;6247674;23;20176;-69
2023/05/02 15:23:28;;;;;;;5.53;5.03;;;16.00;82.80;;;;;;6247704;23;20172;-66
2023/05/02 15:25:55;;;;;;;6.22;5.38;;;16.10;82.70;;;;;;6248052;22;20227;-67
2023/05/02 15:28:22;;;;;;;4.70;4.40;;;16.20;83.30;;;;;;6247423;23;20179;-66
2023/05/02 15:30:48;;;;;;;6.43;4.65;;;16.30;82.40;;;;;;6247565;23;20176;-67
2023/05/02 15:33:15;;;;;;;6.53;4.85;;;16.40;81.50;;;;;;6247908;23;20176;-67
2023/05/02 15:35:53;;;;;;;5.70;5.20;;;16.40;83.90;;;;;;6249119;22;20230;-66
2023/05/02 15:38:20;;;;;;;5.60;5.13;;;16.50;81.40;;;;;;6247516;23;20211;-68
2023/05/02 15:40:55;;;;;;;4.75;4.45;;;16.20;79.00;;;;;;6247617;23;20176;-68
2023/05/02 15:43:22;;;;;;;5.90;5.30;;;16.20;81.00;;;;;;6247573;22;20159;-68
2023/05/02 15:45:51;;;;;;;5.63;5.22;;;16.10;80.20;;;;;;6247243;22;20249;-66
2023/05/02 15:48:17;;;;;;;7.32;5.30;;;15.90;75.10;;;;;;6248068;23;20168;-67
2023/05/02 15:50:46;;;;;;;5.25;4.47;;;15.80;77.00;;;;;;6247319;23;20183;-66
2023/05/02 15:53:12;;;;;;;5.15;4.75;;;15.70;75.50;;;;;;6247548;23;20697;-67
2023/05/02 15:55:39;;;;;;;5.20;4.60;;;15.50;77.70;;;;;;6247272;22;20203;-67
2023/05/02 15:58:08;;;;;;;5.43;5.03;;;15.40;80.30;;;;;;6247085;23;20493;-67
2023/05/02 16:00:34;;;;;;;5.25;4.85;;;15.40;79.00;;;;;;6247389;23;20175;-67
2023/05/02 16:03:02;;;;;;;4.97;4.57;;;15.40;76.70;;;;;;6247313;23;20210;-66
2023/05/02 16:05:28;;;;;;;6.00;5.40;;;15.40;73.70;;;;;;6247450;22;20231;-67
2023/05/02 16:07:55;;;;;;;7.00;5.45;;;15.40;72.60;;;;;;6247202;23;20180;-67
2023/05/02 16:10:22;;;;;;;5.43;4.93;;;15.40;71.80;;;;;;6247180;23;20637;-67
2023/05/02 16:12:49;;;;;;;4.82;4.50;;;15.50;74.70;;;;;;6247129;23;20172;-66
2023/05/02 16:15:17;;;;;;;6.85;6.25;;;15.60;77.60;;;;;;6247232;22;20192;-66
2023/05/02 16:17:44;;;;;;;6.60;4.55;;;15.50;75.40;;;;;;6246788;23;20183;-66
2023/05/02 16:20:11;;;;;;;4.57;4.18;;;15.50;79.60;;;;;;6246575;23;20586;-67
2023/05/02 16:22:38;;;;;;;6.28;5.05;;;15.70;80.60;;;;;;6246700;23;20172;-66
2023/05/02 16:25:05;;;;;;;4.72;4.40;;;15.80;79.30;;;;;;6246802;22;20199;-66
2023/05/02 16:27:33;;;;;;;5.78;5.15;;;15.90;79.60;;;;;;6246979;23;20211;-66
2023/05/02 16:30:00;;;;;;;5.45;5.05;;;15.90;78.10;;;;;;6246679;23;20176;-66
2023/05/02 16:32:28;;;;;;;6.00;5.60;;;15.90;83.50;;;;;;6246203;23;20175;-66
2023/05/02 16:34:54;;;;;;;7.20;5.35;;;16.00;81.80;;;;;;6246491;22;20202;-66
2023/05/02 16:37:21;;;;;;;7.80;7.05;;;15.90;80.60;;;;;;6246537;23;20179;-67
2023/05/02 16:39:48;;;;;;;6.60;6.00;;;15.70;73.80;;;;;;6255969;23;20195;-67
2023/05/02 16:42:15;;;;;;;10.43;7.57;;;15.60;77.90;;;;;;6253405;23;20255;-67
2023/05/02 16:44:42;;;;;;;8.50;7.60;;;15.50;76.70;;;;;;6248971;22;20208;-67
2023/05/02 16:47:09;;;;;;;8.02;7.05;;;15.40;76.10;;;;;;6247216;23;20196;-67
2023/05/02 16:49:38;;;;;;;8.07;7.30;;;15.20;77.40;;;;;;6250374;23;20180;-67
2023/05/02 16:52:05;;;;;;;9.38;8.35;;;15.10;80.00;;;;;;6247932;23;20183;-67
2023/05/02 16:54:32;;;;;;;13.60;9.55;;;15.10;79.70;;;;;;6246994;22;20241;-67
2023/05/02 16:57:01;;;;;;;9.85;8.63;;;14.90;82.50;;;;;;6246867;23;20208;-67
2023/05/02 16:59:28;;;;;;;9.48;8.57;;;14.80;83.30;;;;;;6247092;23;20195;-67
2023/05/02 17:01:55;;;;;;;10.52;9.00;;;14.70;85.20;;;;;;6246908;23;20180;-68
2023/05/02 17:04:22;;;;;;;8.60;7.78;;;14.50;88.20;;;;;;6246939;22;20179;-67
2023/05/02 17:06:50;;;;;;;8.70;7.75;;;14.50;90.40;;;;;;6246617;23;20180;-67
2023/05/02 17:09:17;;;;;;;11.88;8.90;;;14.50;90.70;;;;;;6246695;23;20187;-67
2023/05/02 17:11:44;;;;;;;10.45;9.35;;;14.50;90.40;;;;;;6247170;23;20211;-67
2023/05/02 17:14:12;;;;;;;8.88;7.75;;;14.40;90.40;;;;;;6262997;23;20176;-66
2023/05/02 17:16:39;;;;;;;8.02;7.25;;;14.50;91.90;;;;;;6267472;22;20196;-67
2023/05/02 17:19:06;;;;;;;8.63;7.82;;;14.50;91.80;;;;;;6255070;23;20226;-67
2023/05/02 17:21:34;;;;;;;9.65;8.73;;;14.50;91.40;;;;;;6247652;23;20176;-66
2023/05/02 17:24:02;;;;;;;10.90;8.85;;;14.40;90.80;;;;;;6246798;22;20546;-66
2023/05/02 17:26:29;;;;;;;11.57;8.50;;;14.30;91.10;;;;;;6246585;22;20254;-66
2023/05/02 17:28:56;;;;;;;8.85;7.95;;;14.20;92.50;;;;;;6247177;23;20195;-66
2023/05/02 17:31:23;;;;;;;8.85;8.05;;;14.10;93.90;;;;;;6247110;23;20176;-67
2023/05/02 17:33:50;;;;;;;9.80;8.80;;;14.00;95.10;;;;;;6246865;22;20176;-66
2023/05/02 17:36:16;;;;;;;12.65;9.70;;;14.00;97.00;;;;;;6246545;22;20271;-65
2023/05/02 17:38:43;;;;;;;10.88;8.27;;;13.90;98.10;;;;;;6246275;23;20195;-67
2023/05/02 17:41:13;;;;;;;10.60;9.13;;;14.00;97.00;;;;;;6246599;23;20255;-68
2023/05/02 17:43:41;;;;;;;10.93;9.00;;;14.00;96.30;;;;;;6246739;22;20176;-66
2023/05/02 17:46:08;;;;;;;10.80;9.30;;;14.00;95.80;;;;;;6246375;22;20202;-66
2023/05/02 17:48:35;;;;;;;11.18;8.65;;;14.00;96.30;;;;;;6246855;22;20183;-66
2023/05/02 17:51:02;;;;;;;9.70;8.70;;;14.00;96.80;;;;;;6246146;23;20211;-67
2023/05/02 17:53:29;;;;;;;13.38;9.73;;;14.00;95.40;;;;;;6246220;23;20178;-68
2023/05/02 17:55:56;;;;;;;11.27;8.80;;;13.90;94.00;;;;;;6245853;22;20696;-67
2023/05/02 17:58:24;;;;;;;11.10;9.38;;;13.80;94.50;;;;;;6245801;22;20637;-67
2023/05/02 18:00:51;;;;;;;9.55;8.50;;;13.60;93.70;;;;;;6247027;23;20179;-67
2023/05/02 18:03:17;;;;;;;10.52;8.23;;;13.50;94.90;;;;;;6248410;23;20179;-67
2023/05/02 18:05:46;;;;;;;9.85;8.85;;;13.40;95.70;;;;;;6248358;22;20196;-67
2023/05/02 18:08:12;;;;;;;10.10;8.20;;;13.30;96.00;;;;;;6248241;23;20190;-67
2023/05/02 18:10:40;;;;;;;9.68;6.97;;;13.20;96.30;;;;;;6248744;23;20168;-67
2023/05/02 18:13:07;;;;;;;9.35;7.95;;;13.20;97.30;;;;;;6248952;23;20263;-67
2023/05/02 18:15:35;;;;;;;7.00;6.35;;;13.10;98.40;;;;;;6248183;22;20524;-67
2023/05/02 18:18:02;;;;;;;7.78;6.70;;;13.10;98.90;;;;;;6248343;23;20180;-67
2023/05/02 18:20:29;;;;;;;8.30;7.50;;;13.00;99.80;;;;;;6248337;23;20196;-66
2023/05/02 18:22:57;;;;;;;7.43;6.68;;;12.90;99.90;;;;;;6247688;23;20544;-67
2023/05/02 18:25:24;;;;;;;7.88;6.82;;;12.80;99.90;;;;;;6248092;22;20526;-67
2023/05/02 18:27:51;;;;;;;8.32;7.40;;;12.70;99.90;;;;;;6248255;23;20207;-67
2023/05/02 18:30:19;;;;;;;9.52;8.07;;;12.60;99.90;;;;;;6248261;23;20234;-67
2023/05/02 18:32:47;;;;;;;9.65;7.90;;;12.50;99.90;;;;;;6248370;22;20183;-66
2023/05/02 18:35:13;;;;;;;7.85;7.05;;;12.40;99.90;;;;;;6247726;22;20540;-68
2023/05/02 18:37:40;;;;;;;9.45;7.10;;;12.30;99.90;;;;;;6248216;23;20183;-67
2023/05/02 18:40:08;;;;;;;8.00;6.15;;;12.20;99.90;;;;;;6247617;23;20692;-67
2023/05/02 18:42:35;;;;;;;6.93;6.28;;;12.10;99.90;;;;;;6248537;22;20175;-67
2023/05/02 18:45:03;;;;;;;8.48;7.63;;;11.90;99.90;;;;;;6247747;22;20673;-67
2023/05/02 18:47:31;;;;;;;7.93;6.97;;;11.80;99.90;;;;;;6247967;23;20251;-67
2023/05/02 18:49:59;;;;;;;7.03;6.32;;;11.70;99.90;;;;;;6248211;23;20168;-67
2023/05/02 18:52:26;;;;;;;6.65;6.05;;;11.60;99.90;;;;;;6247945;23;20180;-67
2023/05/02 18:54:53;;;;;;;5.82;5.43;;;11.50;99.90;;;;;;6248013;22;20200;-67
2023/05/02 18:57:20;;;;;;;6.30;5.78;;;11.30;99.90;;;;;;6247687;23;20176;-68
2023/05/02 18:59:47;;;;;;;5.30;4.90;;;11.10;99.90;;;;;;6247966;23;20281;-67
2023/05/02 19:02:14;;;;;;;4.57;4.28;;;11.00;99.90;;;;;;6247898;23;20179;-66
2023/05/02 19:04:41;;;;;;;4.53;4.22;;;10.80;99.90;;;;;;6248039;22;20222;-66
2023/05/02 19:07:09;;;;;;;4.65;4.35;;;10.70;99.90;;;;;;6247639;23;20179;-66
2023/05/02 19:09:36;;;;;;;4.53;4.22;;;10.50;99.90;;;;;;6247912;23;20159;-66
2023/05/02 19:12:03;;;;;;;4.32;4.10;;;10.40;99.90;;;;;;6247697;22;20204;-66
2023/05/02 19:14:32;;;;;;;4.65;4.35;;;10.20;99.90;;;;;;6247408;22;20602;-66
2023/05/02 19:16:58;;;;;;;4.90;4.60;;;10.10;99.90;;;;;;6246415;23;20186;-66
2023/05/02 19:19:25;;;;;;;4.43;4.13;;;10.00;99.90;;;;;;6247797;23;20228;-66
2023/05/02 19:21:52;;;;;;;5.03;4.65;;;9.80;99.90;;;;;;6247878;22;20172;-65
2023/05/02 19:24:20;;;;;;;5.45;5.05;;;9.70;99.90;;;;;;6247562;23;20226;-66
2023/05/02 19:26:47;;;;;;;5.07;4.57;;;9.60;99.90;;;;;;6247954;23;20176;-65
2023/05/02 19:29:14;;;;;;;4.32;4.03;;;9.50;99.90;;;;;;6247364;23;20495;-65
2023/05/02 19:31:41;;;;;;;4.80;4.50;;;9.40;99.90;;;;;;6247723;23;20238;-67
2023/05/02 19:34:08;;;;;;;4.80;4.40;;;9.30;99.90;;;;;;6247397;23;20175;-65
2023/05/02 19:36:34;;;;;;;5.03;4.63;;;9.20;99.90;;;;;;6247559;22;20192;-66
2023/05/02 19:39:01;;;;;;;4.68;4.38;;;9.10;99.90;;;;;;6247171;23;20653;-65
2023/05/02 19:41:29;;;;;;;4.68;4.32;;;9.00;99.90;;;;;;6247694;23;20179;-66
2023/05/02 19:43:57;;;;;;;4.65;4.35;;;8.90;99.90;;;;;;6247157;23;20176;-66
2023/05/02 19:46:24;;;;;;;4.80;4.50;;;8.90;99.90;;;;;;6247904;22;20230;-66
2023/05/02 19:48:51;;;;;;;5.30;4.80;;;8.80;99.90;;;;;;6247475;23;20637;-66
2023/05/02 19:51:23;;;;;;;4.32;4.03;;;8.70;99.90;;;;;;6247482;23;20180;-67
2023/05/02 19:53:50;;;;;;;4.45;4.15;;;8.60;99.90;;;;;;6247890;23;20190;-66
2023/05/02 19:56:17;;;;;;;5.03;4.63;;;8.50;99.90;;;;;;6247585;22;20235;-66
2023/05/02 19:58:45;;;;;;;4.40;4.10;;;8.50;99.90;;;;;;6248158;23;20178;-67
2023/05/02 20:01:12;;;;;;;4.85;4.45;;;8.40;99.90;;;;;;6247235;23;20196;-66
2023/05/02 20:03:38;;;;;;;4.63;4.32;;;8.30;99.90;;;;;;6247240;23;20179;-66
2023/05/02 20:06:05;;;;;;;4.85;4.45;;;8.30;99.90;;;;;;6247386;22;20196;-66
2023/05/02 20:08:32;;;;;;;5.15;4.78;;;8.30;99.90;;;;;;6247286;23;20183;-66
2023/05/02 20:10:58;;;;;;;4.93;4.53;;;8.20;99.90;;;;;;6246717;23;20660;-66
2023/05/02 20:13:26;;;;;;;5.05;4.65;;;8.20;99.90;;;;;;6251903;23;20176;-66
2023/05/02 20:15:54;;;;;;;4.55;4.15;;;8.10;99.90;;;;;;6252454;22;20202;-66
2023/05/02 20:18:21;;;;;;;4.50;4.20;;;8.10;99.90;;;;;;6252152;23;20215;-66
2023/05/02 20:20:48;;;;;;;4.65;4.35;;;8.10;99.90;;;;;;6251567;22;20192;-65
2023/05/02 20:23:15;;;;;;;4.30;4.10;;;8.10;99.90;;;;;;6251589;23;20179;-65
2023/05/02 20:25:42;;;;;;;4.20;3.90;;;8.20;99.90;;;;;;6249632;22;20192;-68
2023/05/02 20:28:09;;;;;;;4.82;4.50;;;8.20;99.90;;;;;;6247248;23;20182;-68
2023/05/02 20:30:37;;;;;;;5.10;4.70;;;8.20;99.90;;;;;;6251620;23;20168;-68
2023/05/02 20:33:06;;;;;;;4.43;4.13;;;8.30;99.90;;;;;;6246677;23;20179;-68
2023/05/02 20:35:33;;;;;;;3.85;3.60;;;8.30;99.90;;;;;;6250809;22;20699;-68
2023/05/02 20:38:00;;;;;;;5.10;4.70;;;8.20;99.90;;;;;;6251762;23;20239;-67
2023/05/02 20:40:27;;;;;;;4.43;4.13;;;8.20;99.90;;;;;;6251310;23;20712;-68
2023/05/02 20:42:56;;;;;;;4.38;4.07;;;8.10;99.90;;;;;;6251499;23;20258;-69
2023/05/02 20:45:24;;;;;;;4.28;4.00;;;8.10;99.90;;;;;;6251812;22;20529;-68
2023/05/02 20:47:51;;;;;;;4.93;4.55;;;8.00;99.90;;;;;;6252953;23;20176;-69
2023/05/02 20:50:19;;;;;;;4.45;4.13;;;7.90;99.90;;;;;;6252685;22;20206;-69
2023/05/02 20:52:46;;;;;;;4.20;3.90;;;7.90;99.90;;;;;;6247936;23;20703;-68
2023/05/02 20:55:13;;;;;;;4.85;4.43;;;7.90;99.90;;;;;;6247942;22;20199;-67
2023/05/02 20:57:40;;;;;;;4.07;3.78;;;7.80;99.90;;;;;;6247165;23;20181;-67
2023/05/02 21:00:11;;;;;;;4.32;4.03;;;7.80;99.90;;;;;;6246072;23;20502;-67
2023/05/02 21:02:37;;;;;;;5.20;4.75;;;7.80;99.90;;;;;;6247369;22;20170;-68
2023/05/02 21:05:05;;;;;;;4.60;4.30;;;7.70;99.90;;;;;;6246373;22;20203;-68
2023/05/02 21:07:33;;;;;;;4.75;4.35;;;7.60;99.90;;;;;;6246217;23;20191;-68
2023/05/02 21:09:59;;;;;;;4.50;4.20;;;7.60;99.90;;;;;;6246010;23;20630;-68
2023/05/02 21:12:26;;;;;;;5.45;4.95;;;7.50;99.90;;;;;;6246445;23;20504;-68
2023/05/02 21:14:53;;;;;;;4.97;4.35;;;7.40;99.90;;;;;;6246363;22;20192;-67
2023/05/02 21:17:20;;;;;;;5.90;5.07;;;7.40;99.90;;;;;;6246370;23;20180;-67
2023/05/02 21:19:47;;;;;;;4.80;4.45;;;7.30;99.90;;;;;;6246792;23;20196;-70
2023/05/02 21:22:13;;;;;;;5.60;5.07;;;7.30;99.90;;;;;;6246301;23;20183;-68
2023/05/02 21:24:41;;;;;;;5.45;4.95;;;7.20;99.90;;;;;;6246197;22;20176;-69
2023/05/02 21:27:08;;;;;;;5.28;4.85;;;7.10;99.90;;;;;;6245712;23;20688;-69
2023/05/02 21:29:35;;;;;;;5.50;5.00;;;7.10;99.90;;;;;;6246197;23;20176;-69
2023/05/02 21:32:01;;;;;;;6.05;5.55;;;7.00;99.90;;;;;;6246373;23;20179;-68
2023/05/02 21:34:28;;;;;;;6.25;5.75;;;6.90;99.90;;;;;;6246092;22;20340;-68
2023/05/02 21:36:55;;;;;;;5.55;5.13;;;6.90;99.90;;;;;;6248017;23;20201;-68
2023/05/02 21:39:21;;;;;;;6.03;5.50;;;6.90;99.90;;;;;;6248520;23;20176;-68
2023/05/02 21:41:49;;;;;;;5.60;5.18;;;6.80;99.90;;;;;;6248273;23;20190;-68
2023/05/02 21:44:16;;;;;;;5.55;5.05;;;6.70;99.90;;;;;;6248413;23;20505;-67
2023/05/02 21:46:45;;;;;;;6.00;5.20;;;6.70;99.90;;;;;;6248629;22;20206;-67
2023/05/02 21:49:12;;;;;;;6.88;6.22;;;6.60;99.90;;;;;;6248525;23;20183;-67
2023/05/02 21:51:39;;;;;;;6.05;5.50;;;6.60;99.90;;;;;;6248187;23;20175;-67
2023/05/02 21:54:06;;;;;;;6.22;5.68;;;6.60;99.90;;;;;;6248705;22;20172;-68
2023/05/02 21:56:33;;;;;;;5.75;5.25;;;6.50;99.90;;;;;;6248544;22;20255;-68
2023/05/02 21:59:00;;;;;;;5.35;4.95;;;6.50;99.90;;;;;;6248444;23;20172;-68
2023/05/02 22:01:27;;;;;;;5.57;5.18;;;6.50;99.90;;;;;;6248317;23;20192;-68
2023/05/02 22:03:54;;;;;;;5.20;4.78;;;6.50;99.90;;;;;;6248310;23;20176;-68
2023/05/02 22:06:21;;;;;;;5.88;5.32;;;6.40;99.90;;;;;;6248141;22;20570;-68
2023/05/02 22:08:47;;;;;;;5.38;4.90;;;6.40;99.90;;;;;;6248494;23;20180;-68
2023/05/02 22:11:14;;;;;;;5.75;4.97;;;6.40;99.90;;;;;;6248393;23;20179;-68
2023/05/02 22:13:41;;;;;;;5.72;5.07;;;6.30;99.90;;;;;;6248277;23;20172;-67
2023/05/02 22:16:09;;;;;;;5.22;4.72;;;6.30;99.90;;;;;;6248002;22;20526;-69
2023/05/02 22:18:36;;;;;;;4.97;4.68;;;6.30;99.90;;;;;;6248724;23;20183;-68
2023/05/02 22:21:03;;;;;;;5.43;5.03;;;6.40;99.90;;;;;;6247933;23;20524;-68
2023/05/02 22:23:30;;;;;;;5.47;4.97;;;6.40;99.90;;;;;;6248082;23;20521;-68
2023/05/02 22:25:57;;;;;;;6.88;5.05;;;6.30;99.90;;;;;;6247941;22;20197;-68
2023/05/02 22:28:24;;;;;;;6.20;5.60;;;6.30;99.90;;;;;;6248045;23;20179;-68
2023/05/02 22:30:50;;;;;;;5.35;4.95;;;6.30;99.90;;;;;;6247925;23;20168;-68
2023/05/02 22:33:18;;;;;;;5.50;5.00;;;6.30;99.90;;;;;;6247813;23;20172;-68
2023/05/02 22:35:45;;;;;;;5.03;4.63;;;6.30;99.90;;;;;;6247801;22;20196;-68
2023/05/02 22:38:15;;;;;;;5.30;4.82;;;6.20;99.90;;;;;;6247485;23;20633;-68
2023/05/02 22:40:42;;;;;;;5.28;4.72;;;6.20;99.90;;;;;;6248084;23;20196;-67
2023/05/02 22:43:08;;;;;;;4.45;4.15;;;6.10;99.90;;;;;;6247785;23;20179;-67
2023/05/02 22:45:35;;;;;;;5.38;4.88;;;6.10;99.90;;;;;;6247318;22;20711;-67
2023/05/02 22:48:02;;;;;;;5.07;4.68;;;6.00;99.90;;;;;;6246871;22;20224;-67
2023/05/02 22:50:30;;;;;;;4.95;4.55;;;6.00;99.90;;;;;;6247772;23;20175;-67
2023/05/02 22:52:58;;;;;;;4.25;3.88;;;5.90;99.90;;;;;;6247834;23;20180;-66
2023/05/02 22:55:25;;;;;;;5.15;4.65;;;5.90;99.90;;;;;;6247487;22;20592;-67
2023/05/02 22:57:52;;;;;;;5.03;4.63;;;5.80;99.90;;;;;;6247211;23;20548;-67
2023/05/02 23:00:21;;;;;;;4.90;4.50;;;5.80;99.90;;;;;;6247598;23;20192;-67
2023/05/02 23:02:48;;;;;;;5.32;4.93;;;5.80;99.90;;;;;;6247666;23;20176;-67
2023/05/02 23:05:15;;;;;;;5.68;4.63;;;5.70;99.90;;;;;;6247436;22;20196;-67
2023/05/02 23:07:43;;;;;;;4.50;4.10;;;5.70;99.90;;;;;;6247290;23;20203;-67
2023/05/02 23:10:10;;;;;;;4.60;4.22;;;5.60;99.90;;;;;;6247514;23;20173;-67
2023/05/02 23:12:37;;;;;;;4.40;4.10;;;5.60;99.90;;;;;;6247491;23;20180;-67
2023/05/02 23:15:05;;;;;;;4.63;4.22;;;5.60;99.90;;;;;;6246995;22;20553;-67
2023/05/02 23:17:32;;;;;;;5.10;4.60;;;5.50;99.90;;;;;;6247522;22;20195;-67
2023/05/02 23:19:58;;;;;;;4.45;4.15;;;5.50;99.90;;;;;;6247385;23;20482;-67
2023/05/02 23:22:25;;;;;;;4.85;4.35;;;5.50;99.90;;;;;;6247333;23;20198;-68
2023/05/02 23:24:53;;;;;;;4.60;4.20;;;5.40;99.90;;;;;;6247226;22;20203;-68
2023/05/02 23:27:20;;;;;;;4.80;4.40;;;5.40;99.90;;;;;;6247451;23;20176;-68
2023/05/02 23:29:47;;;;;;;4.90;4.50;;;5.40;99.90;;;;;;6247289;23;20172;-67
2023/05/02 23:32:14;;;;;;;4.65;4.35;;;5.30;99.90;;;;;;6247390;23;20548;-67
2023/05/02 23:34:41;;;;;;;4.88;4.38;;;5.30;99.90;;;;;;6247294;22;20172;-68
2023/05/02 23:37:08;;;;;;;4.55;4.15;;;5.30;99.90;;;;;;6247526;23;20176;-67
2023/05/02 23:39:35;;;;;;;4.55;4.25;;;5.20;99.90;;;;;;6247422;22;20180;-67
2023/05/02 23:42:03;;;;;;;4.05;3.75;;;5.20;99.90;;;;;;6247077;23;20662;-67
2023/05/02 23:44:30;;;;;;;4.28;3.90;;;5.20;99.90;;;;;;6247378;22;20176;-67
2023/05/02 23:46:58;;;;;;;4.80;4.47;;;5.10;99.90;;;;;;6246948;23;20183;-68
2023/05/02 23:49:24;;;;;;;4.45;4.10;;;5.10;99.90;;;;;;6247116;23;20183;-68
2023/05/02 23:51:51;;;;;;;4.60;4.28;;;5.10;99.90;;;;;;6247516;23;20172;-68
2023/05/02 23:54:18;;;;;;;4.13;3.83;;;5.10;99.90;;;;;;6246777;23;20598;-68
2023/05/02 23:56:45;;;;;;;4.90;4.43;;;5.10;99.90;;;;;;6246963;22;20193;-68
2023/05/02 23:59:13;;;;;;;4.93;4.53;;;5.00;99.90;;;;;;6246616;23;20207;-68
